Time;durP1;ratioP1;P1;durP2;ratioP2;P2;SDS_P1;SDS_P2;PMS_P1;PMS_P2;Temp;Humidity;BMP_temperature;BMP_pressure;BME280_temperature;BME280_humidity;BME280_pressure;Samples;Min_cycle;Max_cycle;Signal;HPM_P1;HPM_P2
2023/12/13 00:00:38;;;;;;;37.08;19.50;;;9.10;99.90;;;;;;5075507;28;20032;-76
2023/12/13 00:03:04;;;;;;;30.60;17.35;;;9.10;99.90;;;;;;5073652;28;20561;-79
2023/12/13 00:05:29;;;;;;;34.58;17.23;;;9.20;99.90;;;;;;5072591;28;20626;-79
2023/12/13 00:07:55;;;;;;;25.33;16.95;;;9.10;99.90;;;;;;5072429;28;20040;-79
2023/12/13 00:10:20;;;;;;;30.33;16.42;;;9.00;99.90;;;;;;5071994;28;20503;-79
2023/12/13 00:12:46;;;;;;;30.90;16.55;;;9.00;99.90;;;;;;5073835;28;20403;-79
2023/12/13 00:15:12;;;;;;;24.70;14.15;;;9.10;99.90;;;;;;5072608;28;20499;-78
2023/12/13 00:17:37;;;;;;;25.60;13.90;;;9.10;99.90;;;;;;5073344;28;20032;-79
2023/12/13 00:20:05;;;;;;;23.58;13.80;;;9.10;99.90;;;;;;5076205;28;20098;-79
2023/12/13 00:22:31;;;;;;;23.77;12.85;;;9.00;99.90;;;;;;5082937;28;20048;-79
2023/12/13 00:24:57;;;;;;;23.25;13.63;;;9.20;99.90;;;;;;5074212;28;20079;-79
2023/12/13 00:27:23;;;;;;;22.70;13.55;;;9.10;99.90;;;;;;5055523;28;20035;-78
2023/12/13 00:29:48;;;;;;;24.08;13.45;;;9.10;99.90;;;;;;5058083;28;20028;-79
2023/12/13 00:32:14;;;;;;;20.90;13.05;;;9.00;99.90;;;;;;5076951;28;20086;-79
2023/12/13 00:34:39;;;;;;;22.35;12.10;;;9.10;99.90;;;;;;5076676;28;20052;-79
2023/12/13 00:37:05;;;;;;;23.15;12.88;;;9.00;99.90;;;;;;5076584;28;20369;-78
2023/12/13 00:39:32;;;;;;;25.90;13.75;;;9.00;99.90;;;;;;5077301;28;20032;-78
2023/12/13 00:41:57;;;;;;;23.33;14.57;;;9.00;99.90;;;;;;5058199;28;20040;-78
2023/12/13 00:44:23;;;;;;;27.70;14.68;;;9.10;99.90;;;;;;5073296;28;20043;-78
2023/12/13 00:46:49;;;;;;;25.75;14.85;;;8.90;99.90;;;;;;5060190;28;20033;-78
2023/12/13 00:49:14;;;;;;;26.00;15.10;;;9.10;99.90;;;;;;5061181;28;20110;-78
2023/12/13 00:51:40;;;;;;;29.50;16.38;;;9.00;99.90;;;;;;5079143;28;20508;-78
2023/12/13 00:54:06;;;;;;;35.85;17.23;;;9.00;99.90;;;;;;5079159;28;20041;-78
2023/12/13 00:56:31;;;;;;;28.60;16.75;;;9.10;99.90;;;;;;5079172;28;20044;-78
2023/12/13 00:58:57;;;;;;;31.42;17.63;;;9.00;99.90;;;;;;5079169;28;20508;-78
2023/12/13 01:01:24;;;;;;;31.67;15.30;;;9.10;99.90;;;;;;5061498;28;20119;-78
2023/12/13 01:03:49;;;;;;;29.45;17.23;;;9.10;99.90;;;;;;5077611;28;20041;-78
2023/12/13 01:06:15;;;;;;;31.08;16.67;;;9.10;99.90;;;;;;5078445;28;20059;-78
2023/12/13 01:08:41;;;;;;;34.30;18.67;;;9.10;99.90;;;;;;5078692;28;20438;-78
2023/12/13 01:11:10;;;;;;;37.15;19.42;;;9.10;99.90;;;;;;5078273;28;20044;-78
2023/12/13 01:13:37;;;;;;;34.38;18.08;;;9.00;99.90;;;;;;5077758;28;20051;-78
2023/12/13 01:16:03;;;;;;;29.58;15.73;;;9.10;99.90;;;;;;5078682;28;20060;-78
2023/12/13 01:18:28;;;;;;;34.65;18.17;;;9.10;99.90;;;;;;5079691;28;20032;-78
2023/12/13 01:20:54;;;;;;;39.85;18.60;;;9.10;99.90;;;;;;5080453;28;20062;-78
2023/12/13 01:23:20;;;;;;;35.72;18.75;;;9.00;99.90;;;;;;5078966;28;20067;-78
2023/12/13 01:25:45;;;;;;;39.03;19.40;;;9.10;99.90;;;;;;5079225;28;20048;-78
2023/12/13 01:28:11;;;;;;;38.55;20.13;;;9.00;99.90;;;;;;5078442;28;20404;-78
2023/12/13 01:30:36;;;;;;;36.10;19.23;;;9.10;99.90;;;;;;5079234;28;20037;-78
2023/12/13 01:33:02;;;;;;;38.33;20.08;;;9.00;99.90;;;;;;5079674;28;20035;-78
2023/12/13 01:35:28;;;;;;;37.17;20.13;;;9.00;99.90;;;;;;5080155;28;20119;-78
2023/12/13 01:37:53;;;;;;;33.47;18.23;;;9.10;99.90;;;;;;5080079;28;20067;-78
2023/12/13 01:40:19;;;;;;;36.80;19.40;;;9.20;99.90;;;;;;5079166;28;20124;-78
2023/12/13 01:42:45;;;;;;;34.88;18.13;;;9.20;99.90;;;;;;5078951;28;20109;-78
2023/12/13 01:45:10;;;;;;;41.92;20.33;;;9.10;99.90;;;;;;5078552;28;20040;-78
2023/12/13 01:47:37;;;;;;;36.00;19.23;;;9.10;99.90;;;;;;5076833;28;20488;-76
2023/12/13 01:50:04;;;;;;;38.75;21.00;;;9.00;99.90;;;;;;5080816;28;20041;-76
2023/12/13 01:52:29;;;;;;;34.90;18.13;;;9.00;99.90;;;;;;5083155;28;20399;-76
2023/12/13 01:54:55;;;;;;;35.20;19.85;;;9.00;99.90;;;;;;5081516;28;20044;-76
2023/12/13 01:57:21;;;;;;;35.08;17.85;;;9.00;99.90;;;;;;5086889;28;20036;-77
2023/12/13 01:59:47;;;;;;;35.63;19.02;;;9.00;99.90;;;;;;5080598;28;20060;-76
2023/12/13 02:02:13;;;;;;;35.28;18.70;;;9.00;99.90;;;;;;5079211;28;20415;-77
2023/12/13 02:04:39;;;;;;;37.58;19.42;;;9.10;99.90;;;;;;5081392;28;20360;-76
2023/12/13 02:07:05;;;;;;;30.73;17.48;;;9.00;99.90;;;;;;5080806;28;20113;-77
2023/12/13 02:09:31;;;;;;;37.65;20.30;;;9.10;99.90;;;;;;5065505;28;20041;-76
2023/12/13 02:11:57;;;;;;;34.80;18.92;;;9.10;99.90;;;;;;5081475;28;20064;-77
2023/12/13 02:14:25;;;;;;;34.25;19.40;;;9.10;99.90;;;;;;5080269;28;20044;-76
2023/12/13 02:16:50;;;;;;;33.95;17.48;;;9.00;99.90;;;;;;5062930;28;20041;-76
2023/12/13 02:19:16;;;;;;;34.20;18.23;;;9.00;99.90;;;;;;5065459;28;20102;-76
2023/12/13 02:21:42;;;;;;;38.95;20.40;;;9.10;99.90;;;;;;5080360;28;20045;-76
2023/12/13 02:24:08;;;;;;;35.13;18.80;;;9.00;99.90;;;;;;5080724;28;20042;-77
2023/12/13 02:26:40;;;;;;;37.38;19.27;;;9.00;99.90;;;;;;5078489;28;20396;-76
2023/12/13 02:29:07;;;;;;;40.78;20.98;;;9.00;99.90;;;;;;5087611;22;20054;-73
2023/12/13 02:31:33;;;;;;;37.97;20.45;;;9.00;99.90;;;;;;5053961;28;20072;-73
2023/12/13 02:33:59;;;;;;;37.45;20.10;;;9.10;99.90;;;;;;5035782;28;20502;-73
2023/12/13 02:36:24;;;;;;;32.60;18.48;;;9.10;99.90;;;;;;5053314;28;20079;-73
2023/12/13 02:38:50;;;;;;;41.10;19.75;;;9.10;99.90;;;;;;5053609;28;20055;-73
2023/12/13 02:41:16;;;;;;;33.70;19.00;;;9.10;99.90;;;;;;5035298;28;20044;-73
2023/12/13 02:43:41;;;;;;;40.50;20.17;;;9.00;99.90;;;;;;5053536;28;20496;-73
2023/12/13 02:46:07;;;;;;;39.25;22.02;;;9.00;99.90;;;;;;5053571;28;20032;-73
2023/12/13 02:48:33;;;;;;;42.78;21.65;;;9.10;99.90;;;;;;5053612;28;20393;-73
2023/12/13 02:50:58;;;;;;;43.05;21.80;;;9.00;99.90;;;;;;5053317;28;20078;-73
2023/12/13 02:53:24;;;;;;;41.63;21.85;;;9.00;99.90;;;;;;5053459;28;20139;-73
2023/12/13 02:55:49;;;;;;;40.65;22.42;;;9.00;99.90;;;;;;5035592;28;20448;-73
2023/12/13 02:58:15;;;;;;;41.95;20.65;;;9.00;99.90;;;;;;5035394;28;20044;-73
2023/12/13 03:00:41;;;;;;;39.53;21.35;;;9.00;99.90;;;;;;5035073;28;20041;-73
2023/12/13 03:03:08;;;;;;;40.83;21.75;;;9.00;99.90;;;;;;5035456;28;20120;-73
2023/12/13 03:05:33;;;;;;;40.75;20.90;;;9.10;99.90;;;;;;5053260;28;20041;-73
2023/12/13 03:07:59;;;;;;;43.75;22.70;;;9.00;99.90;;;;;;5053000;28;20078;-73
2023/12/13 03:10:25;;;;;;;42.20;21.95;;;9.10;99.90;;;;;;5053156;28;20040;-73
2023/12/13 03:12:51;;;;;;;42.45;21.83;;;9.10;99.90;;;;;;5052929;28;20415;-72
2023/12/13 03:15:16;;;;;;;40.60;21.05;;;9.10;99.90;;;;;;5053371;28;20148;-73
2023/12/13 03:17:42;;;;;;;39.47;20.77;;;9.10;99.90;;;;;;5035070;28;20128;-73
2023/12/13 03:20:10;;;;;;;40.70;21.50;;;9.20;99.90;;;;;;5052980;28;20041;-72
2023/12/13 03:22:35;;;;;;;43.10;21.95;;;9.00;99.90;;;;;;5035051;28;20036;-72
2023/12/13 03:25:01;;;;;;;37.83;20.67;;;9.10;99.90;;;;;;5052941;28;20063;-72
2023/12/13 03:27:27;;;;;;;40.28;21.25;;;9.10;99.90;;;;;;5052779;28;20400;-72
2023/12/13 03:29:52;;;;;;;39.55;19.73;;;9.10;99.90;;;;;;5052932;28;20044;-74
2023/12/13 03:32:18;;;;;;;43.03;22.55;;;9.10;99.90;;;;;;5052855;28;20435;-72
2023/12/13 03:34:43;;;;;;;36.40;20.08;;;9.00;99.90;;;;;;5052710;28;20036;-72
2023/12/13 03:37:09;;;;;;;39.47;19.38;;;9.00;99.90;;;;;;5052583;28;20554;-73
2023/12/13 03:39:35;;;;;;;34.67;20.50;;;9.10;99.90;;;;;;5052670;28;20033;-73
2023/12/13 03:42:01;;;;;;;35.05;19.23;;;9.10;99.90;;;;;;5052644;28;20404;-72
2023/12/13 03:44:27;;;;;;;31.23;18.05;;;9.10;99.90;;;;;;5052530;28;20512;-72
2023/12/13 03:46:54;;;;;;;32.88;18.20;;;9.00;99.90;;;;;;5052268;28;20120;-73
2023/12/13 03:49:19;;;;;;;35.42;18.58;;;9.00;99.90;;;;;;5052385;28;20033;-73
2023/12/13 03:51:47;;;;;;;33.25;17.77;;;9.10;99.90;;;;;;5052260;28;20047;-73
2023/12/13 03:54:13;;;;;;;36.28;20.15;;;9.10;99.90;;;;;;5052246;28;20049;-73
2023/12/13 03:56:39;;;;;;;33.90;18.65;;;9.10;99.90;;;;;;5052158;28;20037;-73
2023/12/13 03:59:05;;;;;;;36.92;18.48;;;9.10;99.90;;;;;;5052305;28;20040;-73
2023/12/13 04:01:30;;;;;;;41.40;19.58;;;9.00;99.90;;;;;;5034254;28;20047;-73
2023/12/13 04:03:56;;;;;;;36.50;19.02;;;9.10;99.90;;;;;;5052135;28;20415;-73
2023/12/13 04:06:22;;;;;;;31.98;17.15;;;9.10;99.90;;;;;;5051773;28;20457;-73
2023/12/13 04:08:48;;;;;;;35.40;18.95;;;9.00;99.90;;;;;;5051839;28;20033;-73
2023/12/13 04:11:13;;;;;;;37.13;19.45;;;8.90;99.90;;;;;;5017508;28;20489;-73
2023/12/13 04:13:39;;;;;;;33.53;17.80;;;9.10;99.90;;;;;;5033976;28;20509;-73
2023/12/13 04:16:05;;;;;;;30.05;17.27;;;9.10;99.90;;;;;;5033860;28;20048;-74
2023/12/13 04:18:31;;;;;;;33.03;17.08;;;9.00;99.90;;;;;;5033858;28;20094;-73
2023/12/13 04:20:56;;;;;;;35.92;18.55;;;9.10;99.90;;;;;;5034101;28;20048;-73
2023/12/13 04:23:22;;;;;;;32.72;18.60;;;9.00;99.90;;;;;;5051783;28;20045;-73
2023/12/13 04:25:48;;;;;;;33.63;17.85;;;9.00;99.90;;;;;;5033855;28;20075;-73
2023/12/13 04:28:13;;;;;;;33.03;17.80;;;9.00;99.90;;;;;;5051764;28;20033;-73
2023/12/13 04:30:39;;;;;;;33.50;18.25;;;9.10;99.90;;;;;;5033696;28;20515;-73
2023/12/13 04:33:05;;;;;;;31.13;17.55;;;9.00;99.90;;;;;;5033798;28;20037;-73
2023/12/13 04:35:32;;;;;;;33.42;17.23;;;9.10;99.90;;;;;;5033742;28;20122;-72
2023/12/13 04:37:58;;;;;;;32.20;17.30;;;9.00;99.90;;;;;;5033493;28;20049;-73
2023/12/13 04:40:24;;;;;;;31.42;17.17;;;9.10;99.90;;;;;;5051749;28;20033;-73
2023/12/13 04:42:50;;;;;;;36.38;18.35;;;9.00;99.90;;;;;;5033908;28;20041;-73
2023/12/13 04:45:16;;;;;;;37.00;17.25;;;9.10;99.90;;;;;;5051608;28;20048;-73
2023/12/13 04:47:42;;;;;;;27.70;15.05;;;9.10;99.90;;;;;;5051178;28;20485;-73
2023/12/13 04:50:08;;;;;;;32.38;16.88;;;9.00;99.90;;;;;;5033650;28;20045;-72
2023/12/13 04:52:34;;;;;;;30.95;16.55;;;9.00;99.90;;;;;;5051461;28;20040;-74
2023/12/13 04:54:59;;;;;;;29.50;16.65;;;9.10;99.90;;;;;;5051385;28;20040;-73
2023/12/13 04:57:25;;;;;;;28.65;15.63;;;9.10;99.90;;;;;;5051404;28;20061;-73
2023/12/13 04:59:51;;;;;;;24.45;14.73;;;9.10;99.90;;;;;;5033543;28;20044;-73
2023/12/13 05:02:17;;;;;;;26.23;14.73;;;9.10;99.90;;;;;;5033447;28;20116;-73
2023/12/13 05:04:42;;;;;;;26.42;15.55;;;9.20;99.90;;;;;;5051389;28;20087;-73
2023/12/13 05:07:11;;;;;;;27.85;15.93;;;9.10;99.90;;;;;;5051074;28;20047;-73
2023/12/13 05:09:36;;;;;;;26.15;15.45;;;9.20;99.90;;;;;;5017168;28;20373;-73
2023/12/13 05:12:02;;;;;;;27.83;15.07;;;9.20;99.90;;;;;;5051501;28;20048;-73
2023/12/13 05:14:28;;;;;;;28.75;16.10;;;9.10;99.90;;;;;;5051388;28;20041;-74
2023/12/13 05:16:53;;;;;;;27.30;15.25;;;9.10;99.90;;;;;;5051069;28;20056;-73
2023/12/13 05:19:19;;;;;;;28.25;15.57;;;9.10;99.90;;;;;;5051212;28;20493;-73
2023/12/13 05:21:45;;;;;;;26.25;15.80;;;9.20;99.90;;;;;;5051136;28;20114;-73
2023/12/13 05:24:10;;;;;;;25.90;14.55;;;9.20;99.90;;;;;;5053417;28;20033;-73
2023/12/13 05:26:36;;;;;;;29.33;15.43;;;9.20;99.90;;;;;;5036882;28;20041;-73
2023/12/13 05:29:04;;;;;;;26.25;14.82;;;9.30;99.90;;;;;;5054961;28;20537;-73
2023/12/13 05:31:30;;;;;;;27.85;14.13;;;9.20;99.90;;;;;;5037156;28;20048;-73
2023/12/13 05:33:56;;;;;;;25.52;14.40;;;9.20;99.90;;;;;;5055012;28;20091;-73
2023/12/13 05:36:22;;;;;;;27.65;15.10;;;9.20;99.90;;;;;;5054543;28;20459;-73
2023/12/13 05:38:47;;;;;;;22.55;13.80;;;9.20;99.90;;;;;;5055005;28;20059;-73
2023/12/13 05:41:13;;;;;;;25.65;15.52;;;9.10;99.90;;;;;;5055129;28;20045;-73
2023/12/13 05:43:39;;;;;;;24.15;13.75;;;9.10;99.90;;;;;;5036853;28;20048;-74
2023/12/13 05:46:06;;;;;;;24.17;13.85;;;9.10;99.90;;;;;;5036698;28;20044;-74
2023/12/13 05:48:32;;;;;;;27.35;13.50;;;9.30;99.90;;;;;;5054665;28;20041;-73
2023/12/13 05:50:58;;;;;;;25.95;14.98;;;9.30;99.90;;;;;;5036583;28;20041;-73
2023/12/13 05:53:24;;;;;;;27.15;13.77;;;9.10;99.90;;;;;;5036714;28;20045;-73
2023/12/13 05:55:50;;;;;;;26.30;14.10;;;9.20;99.90;;;;;;5036861;28;20036;-73
2023/12/13 05:58:15;;;;;;;21.55;12.80;;;9.20;99.90;;;;;;5036396;28;20048;-74
2023/12/13 06:00:41;;;;;;;31.60;16.02;;;9.20;99.90;;;;;;5036556;28;20045;-73
2023/12/13 06:03:07;;;;;;;25.42;14.57;;;9.20;99.90;;;;;;5036712;28;20500;-73
2023/12/13 06:05:32;;;;;;;24.13;13.70;;;9.10;99.90;;;;;;5036270;28;20043;-73
2023/12/13 06:07:58;;;;;;;26.60;14.02;;;9.10;99.90;;;;;;5054336;28;20551;-73
2023/12/13 06:10:24;;;;;;;26.52;14.05;;;9.10;99.90;;;;;;5036643;28;20033;-73
2023/12/13 06:12:52;;;;;;;23.33;14.63;;;9.10;99.90;;;;;;5054214;28;20124;-73
2023/12/13 06:15:24;;;;;;;30.27;14.50;;;9.20;99.90;;;;;;5054223;28;20040;-74
2023/12/13 06:17:49;;;;;;;28.05;15.38;;;9.10;99.90;;;;;;5036273;28;20052;-74
2023/12/13 06:20:16;;;;;;;26.92;15.57;;;9.20;99.90;;;;;;5053888;28;20045;-74
2023/12/13 06:22:41;;;;;;;22.55;13.88;;;9.20;99.90;;;;;;5054179;28;20037;-74
2023/12/13 06:25:07;;;;;;;28.20;15.23;;;9.20;99.90;;;;;;5036353;28;20053;-74
2023/12/13 06:27:33;;;;;;;26.30;16.80;;;9.10;99.90;;;;;;5053831;28;20029;-74
2023/12/13 06:29:59;;;;;;;28.70;14.40;;;9.10;99.90;;;;;;5053727;28;20582;-74
2023/12/13 06:32:25;;;;;;;24.48;15.07;;;9.10;99.90;;;;;;5053909;28;20052;-74
2023/12/13 06:34:50;;;;;;;23.52;14.70;;;9.10;99.90;;;;;;5035552;28;20086;-74
2023/12/13 06:37:16;;;;;;;25.10;14.35;;;9.10;99.90;;;;;;5035677;28;20040;-74
2023/12/13 06:39:42;;;;;;;30.38;15.40;;;9.20;99.90;;;;;;5035799;28;20045;-73
2023/12/13 06:42:10;;;;;;;27.30;14.82;;;9.20;99.90;;;;;;5053793;28;20037;-74
2023/12/13 06:44:37;;;;;;;27.48;15.18;;;9.10;99.90;;;;;;5035602;28;20049;-73
2023/12/13 06:47:03;;;;;;;26.65;15.38;;;9.10;99.90;;;;;;5035462;28;20045;-74
2023/12/13 06:49:30;;;;;;;29.98;14.98;;;9.10;99.90;;;;;;5049988;28;20458;-73
2023/12/13 06:51:57;;;;;;;26.00;15.30;;;9.20;99.90;;;;;;5053520;28;20045;-73
2023/12/13 06:54:22;;;;;;;25.77;14.65;;;9.20;99.90;;;;;;5052206;28;20058;-73
2023/12/13 06:56:48;;;;;;;27.20;14.70;;;9.30;99.90;;;;;;5053230;28;20045;-73
2023/12/13 06:59:14;;;;;;;29.67;15.32;;;9.30;99.90;;;;;;5053256;28;20037;-73
2023/12/13 07:01:40;;;;;;;29.13;16.58;;;9.20;99.90;;;;;;5053137;28;20064;-74
2023/12/13 07:04:06;;;;;;;24.38;14.63;;;9.20;99.90;;;;;;5053202;28;20511;-74
2023/12/13 07:06:32;;;;;;;29.08;15.30;;;9.20;99.90;;;;;;5053100;28;20041;-74
2023/12/13 07:08:59;;;;;;;29.17;16.25;;;9.30;99.90;;;;;;5051778;28;20094;-74
2023/12/13 07:11:24;;;;;;;26.65;16.00;;;9.20;99.90;;;;;;5053261;28;20037;-74
2023/12/13 07:13:50;;;;;;;32.22;16.23;;;9.30;99.90;;;;;;5053123;28;20577;-74
2023/12/13 07:16:16;;;;;;;31.83;16.20;;;9.30;99.90;;;;;;5052633;28;20037;-74
2023/12/13 07:18:41;;;;;;;29.42;16.75;;;9.30;99.90;;;;;;5052980;28;20036;-74
2023/12/13 07:21:07;;;;;;;30.52;16.70;;;9.30;99.90;;;;;;5052776;28;20040;-74
2023/12/13 07:23:35;;;;;;;28.75;17.83;;;9.30;99.90;;;;;;5051670;28;20424;-74
2023/12/13 07:26:04;;;;;;;25.92;16.02;;;9.30;99.90;;;;;;5051629;28;20045;-73
2023/12/13 07:28:37;;;;;;;33.40;17.52;;;9.20;99.90;;;;;;5052681;28;20120;-73
2023/12/13 07:31:06;;;;;;;26.88;15.60;;;9.30;99.90;;;;;;5052544;28;20045;-73
2023/12/13 07:33:37;;;;;;;28.95;15.85;;;9.20;99.90;;;;;;5052910;28;20033;-73
2023/12/13 07:36:04;;;;;;;28.38;15.50;;;9.20;99.90;;;;;;5052703;28;20040;-73
2023/12/13 07:38:30;;;;;;;30.90;17.25;;;9.20;99.90;;;;;;5052517;28;20041;-73
2023/12/13 07:40:55;;;;;;;30.50;16.50;;;9.40;99.90;;;;;;5051253;28;20051;-73
2023/12/13 07:43:21;;;;;;;30.30;18.48;;;9.20;99.90;;;;;;5052445;28;20041;-74
2023/12/13 07:45:52;;;;;;;32.15;17.52;;;9.30;99.90;;;;;;5051718;28;20071;-74
2023/12/13 07:48:20;;;;;;;32.53;17.85;;;9.20;99.90;;;;;;5050960;28;20037;-74
2023/12/13 07:50:46;;;;;;;33.47;17.75;;;9.40;99.90;;;;;;5052485;28;20033;-74
2023/12/13 07:53:12;;;;;;;33.92;19.20;;;9.20;99.90;;;;;;5052469;28;20090;-74
2023/12/13 07:55:38;;;;;;;29.42;16.77;;;9.30;99.90;;;;;;5052172;28;20048;-74
2023/12/13 07:58:03;;;;;;;29.02;16.25;;;9.40;99.90;;;;;;5051996;28;20033;-74
2023/12/13 08:00:29;;;;;;;27.52;16.80;;;9.40;99.90;;;;;;5052354;28;20041;-74
2023/12/13 08:02:55;;;;;;;33.55;16.88;;;9.30;99.90;;;;;;5050863;28;20067;-75
2023/12/13 08:05:21;;;;;;;26.48;17.15;;;9.30;99.90;;;;;;5052256;28;20541;-73
2023/12/13 08:07:46;;;;;;;29.25;16.98;;;9.30;99.90;;;;;;5051807;28;20106;-73
2023/12/13 08:10:12;;;;;;;31.45;18.45;;;9.40;99.90;;;;;;5051766;28;20039;-74
2023/12/13 08:12:43;;;;;;;30.38;18.73;;;9.30;99.90;;;;;;5051894;28;20069;-73
2023/12/13 08:15:10;;;;;;;33.70;18.88;;;9.40;99.90;;;;;;5052115;28;20064;-73
2023/12/13 08:17:36;;;;;;;35.33;18.45;;;9.30;99.90;;;;;;5051670;28;20048;-73
2023/12/13 08:20:02;;;;;;;30.42;17.90;;;9.30;99.90;;;;;;5051704;28;20037;-74
2023/12/13 08:22:27;;;;;;;33.72;20.15;;;9.40;99.90;;;;;;5051719;28;20079;-73
2023/12/13 08:24:53;;;;;;;32.92;18.40;;;9.40;99.90;;;;;;5051765;28;20055;-74
2023/12/13 08:27:18;;;;;;;32.47;18.65;;;9.30;99.90;;;;;;5051463;28;20428;-73
2023/12/13 08:29:44;;;;;;;32.85;18.90;;;9.30;99.90;;;;;;5066852;22;20131;-80
2023/12/13 08:32:10;;;;;;;31.20;18.75;;;9.30;99.90;;;;;;5035798;28;20041;-81
2023/12/13 08:34:35;;;;;;;37.70;19.67;;;9.40;99.90;;;;;;5019127;28;20049;-79
2023/12/13 08:37:01;;;;;;;30.27;17.77;;;9.40;99.90;;;;;;5052776;28;20076;-79
2023/12/13 08:39:27;;;;;;;33.03;17.70;;;9.30;99.90;;;;;;5036004;28;20170;-78
2023/12/13 08:41:53;;;;;;;40.97;20.05;;;9.30;99.90;;;;;;5036490;28;20081;-78
2023/12/13 08:44:19;;;;;;;35.15;18.98;;;9.40;99.90;;;;;;5054722;28;20052;-77
2023/12/13 08:46:45;;;;;;;38.47;19.95;;;9.40;99.90;;;;;;5035756;28;20037;-77
2023/12/13 08:49:11;;;;;;;39.05;20.92;;;9.40;99.90;;;;;;5036622;28;20260;-77
2023/12/13 08:51:37;;;;;;;33.45;18.02;;;9.50;99.90;;;;;;5035487;28;20518;-77
2023/12/13 08:54:04;;;;;;;38.63;20.85;;;9.50;99.90;;;;;;5035095;28;20040;-77
2023/12/13 08:56:29;;;;;;;30.42;18.17;;;9.30;99.90;;;;;;5034280;28;20044;-77
2023/12/13 08:58:55;;;;;;;34.17;18.05;;;9.50;99.90;;;;;;5021700;28;20414;-77
2023/12/13 09:01:21;;;;;;;33.47;19.88;;;9.40;99.90;;;;;;5039410;28;20048;-77
2023/12/13 09:03:46;;;;;;;35.97;19.05;;;9.60;99.90;;;;;;5040367;28;20408;-77
2023/12/13 09:06:14;;;;;;;34.10;18.58;;;9.50;99.90;;;;;;5023652;28;20127;-77
2023/12/13 09:08:40;;;;;;;40.88;20.40;;;9.40;99.90;;;;;;5040927;28;20037;-77
2023/12/13 09:11:06;;;;;;;38.30;19.67;;;9.50;99.90;;;;;;5058358;28;20043;-77
2023/12/13 09:13:33;;;;;;;30.45;18.75;;;9.50;99.90;;;;;;5059706;28;20044;-77
2023/12/13 09:15:58;;;;;;;33.33;18.75;;;9.60;99.90;;;;;;5041479;28;20041;-77
2023/12/13 09:18:24;;;;;;;40.17;19.35;;;9.50;99.90;;;;;;5040647;28;20412;-77
2023/12/13 09:20:49;;;;;;;36.25;21.13;;;9.50;99.90;;;;;;5041200;28;20048;-78
2023/12/13 09:23:26;;;;;;;34.45;19.85;;;9.60;99.90;;;;;;5039592;28;20418;-77
2023/12/13 09:25:52;;;;;;;36.40;20.08;;;9.50;99.90;;;;;;5038743;28;20420;-77
2023/12/13 09:28:18;;;;;;;33.47;20.00;;;9.60;99.90;;;;;;5040471;28;20037;-77
2023/12/13 09:30:44;;;;;;;29.52;18.75;;;9.50;99.90;;;;;;5041121;28;20043;-78
2023/12/13 09:33:11;;;;;;;39.58;21.48;;;9.50;99.90;;;;;;5041706;28;20052;-76
2023/12/13 09:35:38;;;;;;;38.70;19.98;;;9.50;99.90;;;;;;5059970;28;20051;-77
2023/12/13 09:38:04;;;;;;;36.78;20.50;;;9.50;99.90;;;;;;5058696;28;20033;-77
2023/12/13 09:40:30;;;;;;;42.13;20.40;;;9.60;99.90;;;;;;5040097;28;20047;-77
2023/12/13 09:42:56;;;;;;;34.53;20.30;;;9.60;99.90;;;;;;5041134;28;20052;-79
2023/12/13 09:45:22;;;;;;;36.95;19.83;;;9.60;99.90;;;;;;5041964;28;20041;-79
2023/12/13 09:47:52;;;;;;;36.25;19.67;;;9.80;99.90;;;;;;5040379;28;20122;-78
2023/12/13 09:50:19;;;;;;;34.92;18.90;;;9.60;99.90;;;;;;5040830;28;20041;-78
2023/12/13 09:52:46;;;;;;;44.28;20.67;;;9.70;99.90;;;;;;5038538;28;20036;-79
2023/12/13 09:55:12;;;;;;;35.55;19.38;;;9.70;99.90;;;;;;5037591;28;20574;-77
2023/12/13 09:57:38;;;;;;;37.78;19.02;;;9.80;99.90;;;;;;5051410;28;20045;-78
2023/12/13 10:00:07;;;;;;;37.10;19.40;;;9.80;99.90;;;;;;5056862;28;20036;-78
2023/12/13 10:02:33;;;;;;;35.25;19.38;;;9.70;99.90;;;;;;5023761;28;20041;-78
2023/12/13 10:04:59;;;;;;;37.75;20.00;;;9.90;99.90;;;;;;5040335;28;20033;-78
2023/12/13 10:07:27;;;;;;;37.28;19.00;;;9.90;99.90;;;;;;5057469;28;20442;-78
2023/12/13 10:09:55;;;;;;;37.97;19.70;;;9.80;99.90;;;;;;5022459;28;20068;-79
2023/12/13 10:12:24;;;;;;;39.63;20.20;;;9.80;99.90;;;;;;5040795;28;20232;-78
2023/12/13 10:14:49;;;;;;;37.53;20.90;;;9.80;99.90;;;;;;5059270;28;20045;-77
2023/12/13 10:17:19;;;;;;;35.13;19.75;;;9.90;99.90;;;;;;5057722;28;20051;-78
2023/12/13 10:19:45;;;;;;;34.47;18.77;;;10.00;99.90;;;;;;5039972;28;20041;-77
2023/12/13 10:22:11;;;;;;;37.15;19.20;;;9.90;99.90;;;;;;5040613;28;20049;-77
2023/12/13 10:24:37;;;;;;;35.92;18.85;;;10.00;99.90;;;;;;5058680;28;20123;-77
2023/12/13 10:27:03;;;;;;;31.95;20.02;;;10.10;99.90;;;;;;5039454;28;20041;-78
2023/12/13 10:29:30;;;;;;;37.03;19.80;;;10.10;99.90;;;;;;5037790;28;20045;-77
2023/12/13 10:31:57;;;;;;;38.83;19.92;;;10.00;99.90;;;;;;5038564;28;20096;-78
2023/12/13 10:34:22;;;;;;;37.17;19.70;;;10.00;99.90;;;;;;5020658;28;20045;-77
2023/12/13 10:36:49;;;;;;;38.42;21.13;;;10.10;99.90;;;;;;5022259;28;20060;-78
2023/12/13 10:39:15;;;;;;;37.58;20.30;;;10.00;99.90;;;;;;5023217;28;20047;-78
2023/12/13 10:41:44;;;;;;;58.35;31.77;;;10.00;99.90;;;;;;5038966;28;20045;-78
2023/12/13 10:44:18;;;;;;;43.88;23.05;;;10.10;99.90;;;;;;5039957;28;20484;-77
2023/12/13 10:46:47;;;;;;;37.42;20.73;;;10.20;99.90;;;;;;5036361;28;20044;-78
2023/12/13 10:49:15;;;;;;;41.50;21.08;;;10.10;99.90;;;;;;5057415;28;20109;-77
2023/12/13 10:51:43;;;;;;;40.28;20.83;;;10.10;99.90;;;;;;5039623;28;20658;-77
2023/12/13 10:54:11;;;;;;;43.88;22.33;;;10.10;99.90;;;;;;5039170;28;20098;-78
2023/12/13 10:56:37;;;;;;;43.92;21.05;;;10.10;99.90;;;;;;5039513;28;20041;-78
2023/12/13 10:59:03;;;;;;;42.85;21.63;;;10.20;99.90;;;;;;5058174;28;20074;-78
2023/12/13 11:01:30;;;;;;;42.13;20.80;;;10.20;99.90;;;;;;5038396;28;20508;-78
2023/12/13 11:04:10;;;;;;;43.70;21.85;;;10.10;99.90;;;;;;5037626;28;20037;-76
2023/12/13 11:06:39;;;;;;;42.53;22.77;;;10.20;99.90;;;;;;5021175;28;20440;-78
2023/12/13 11:09:13;;;;;;;41.13;21.70;;;10.20;99.90;;;;;;5036320;28;20060;-78
2023/12/13 11:11:39;;;;;;;44.55;22.48;;;10.30;99.90;;;;;;5034331;28;20086;-79
2023/12/13 11:14:07;;;;;;;42.17;22.20;;;10.20;99.90;;;;;;5036703;28;20056;-78
2023/12/13 11:16:45;;;;;;;41.20;23.02;;;10.30;99.90;;;;;;5020316;28;20400;-79
2023/12/13 11:19:15;;;;;;;48.17;24.33;;;10.20;99.90;;;;;;5037752;28;20041;-78
2023/12/13 11:21:41;;;;;;;44.60;22.02;;;10.20;99.90;;;;;;5038558;28;20033;-79
2023/12/13 11:24:20;;;;;;;43.58;22.67;;;10.20;99.90;;;;;;5056280;28;20040;-79
2023/12/13 11:26:50;;;;;;;45.55;20.75;;;10.20;99.90;;;;;;5021925;28;20041;-80
2023/12/13 11:29:22;;;;;;;39.28;20.17;;;10.30;99.90;;;;;;5021659;28;20508;-79
2023/12/13 11:32:00;;;;;;;48.15;22.60;;;10.20;99.90;;;;;;5056432;28;20558;-79
2023/12/13 11:34:36;;;;;;;46.08;21.88;;;10.20;99.90;;;;;;5054180;28;20040;-80
2023/12/13 11:37:07;;;;;;;39.33;20.92;;;10.20;99.90;;;;;;5018154;28;20044;-79
2023/12/13 11:39:34;;;;;;;39.65;21.65;;;10.20;99.90;;;;;;5034194;28;20454;-79
2023/12/13 11:42:02;;;;;;;45.65;22.58;;;10.30;99.90;;;;;;5018526;28;20086;-79
2023/12/13 11:44:32;;;;;;;37.47;20.70;;;10.30;99.90;;;;;;5031048;28;20521;-78
2023/12/13 11:46:59;;;;;;;41.90;21.20;;;10.20;99.90;;;;;;5044747;28;20086;-78
2023/12/13 11:49:26;;;;;;;43.45;21.27;;;10.30;99.90;;;;;;5037469;28;20037;-79
2023/12/13 11:51:58;;;;;;;39.50;21.15;;;10.20;99.90;;;;;;5053382;28;20044;-77
2023/12/13 11:54:24;;;;;;;42.47;21.73;;;10.20;99.90;;;;;;5051510;28;20519;-78
2023/12/13 11:56:50;;;;;;;43.78;19.25;;;10.10;99.90;;;;;;5053587;28;20041;-79
2023/12/13 11:59:16;;;;;;;45.85;21.92;;;10.30;99.90;;;;;;5037359;28;20045;-79
2023/12/13 12:01:42;;;;;;;45.75;21.95;;;10.30;99.90;;;;;;5037110;28;20555;-78
2023/12/13 12:04:08;;;;;;;38.20;20.30;;;10.30;99.90;;;;;;5040673;28;20037;-78
2023/12/13 12:06:33;;;;;;;35.92;19.27;;;10.30;99.90;;;;;;5038885;28;20040;-77
2023/12/13 12:09:00;;;;;;;42.10;20.67;;;10.30;99.90;;;;;;5040071;28;20129;-78
2023/12/13 12:11:26;;;;;;;45.92;23.42;;;10.30;99.90;;;;;;5058459;28;20496;-77
2023/12/13 12:13:55;;;;;;;40.78;22.20;;;10.30;99.90;;;;;;5052628;28;20039;-77
2023/12/13 12:16:21;;;;;;;33.67;19.83;;;10.40;99.90;;;;;;5058419;28;20037;-77
2023/12/13 12:18:46;;;;;;;42.33;22.48;;;10.30;99.90;;;;;;5054331;28;20115;-78
2023/12/13 12:21:12;;;;;;;50.47;22.08;;;10.30;99.90;;;;;;5030412;28;20124;-77
2023/12/13 12:23:39;;;;;;;47.38;21.27;;;10.30;99.90;;;;;;5039204;28;20040;-78
2023/12/13 12:26:12;;;;;;;30.92;17.33;;;10.30;99.90;;;;;;5053588;28;20047;-78
2023/12/13 12:28:40;;;;;;;26.58;15.43;;;10.20;99.90;;;;;;5054961;28;20048;-78
2023/12/13 12:31:08;;;;;;;30.55;15.80;;;10.10;99.90;;;;;;5037521;28;20032;-77